Time;durP1;ratioP1;P1;durP2;ratioP2;P2;SDS_P1;SDS_P2;PMS_P1;PMS_P2;Temp;Humidity;BMP_temperature;BMP_pressure;BME280_temperature;BME280_humidity;BME280_pressure;Samples;Min_cycle;Max_cycle;Signal;HPM_P1;HPM_P2
2024/05/08 00:01:58;;;;;;;2.37;2.17;;;8.90;99.90;;;;;;6555100;21;20228;-80
2024/05/08 00:04:26;;;;;;;6.30;2.47;;;8.80;99.90;;;;;;6530180;22;20227;-80
2024/05/08 00:06:55;;;;;;;2.50;2.30;;;8.70;99.90;;;;;;6485043;22;20262;-80
2024/05/08 00:09:23;;;;;;;2.73;2.20;;;8.90;99.90;;;;;;6485198;22;20228;-80
2024/05/08 00:11:52;;;;;;;4.23;2.30;;;8.80;99.90;;;;;;6484847;22;20274;-80
2024/05/08 00:14:20;;;;;;;2.60;2.40;;;8.50;99.90;;;;;;6529853;22;20216;-79
2024/05/08 00:16:51;;;;;;;2.30;2.10;;;8.50;99.90;;;;;;6530278;22;20216;-80
2024/05/08 00:19:20;;;;;;;4.90;2.17;;;8.40;99.90;;;;;;6485162;22;20229;-80
2024/05/08 00:21:48;;;;;;;2.10;2.00;;;8.50;99.90;;;;;;6485039;22;20264;-80
2024/05/08 00:24:17;;;;;;;3.27;1.90;;;8.40;99.90;;;;;;6529896;22;20267;-80
2024/05/08 00:26:45;;;;;;;3.83;2.40;;;8.30;99.90;;;;;;6484898;22;20256;-80
2024/05/08 00:29:14;;;;;;;2.27;1.90;;;8.10;99.90;;;;;;6484973;22;20231;-80
2024/05/08 00:31:42;;;;;;;7.53;2.40;;;8.10;99.90;;;;;;6529481;22;20276;-79
2024/05/08 00:34:13;;;;;;;2.40;2.20;;;8.20;99.90;;;;;;6530210;22;20216;-80
2024/05/08 00:36:42;;;;;;;6.50;2.40;;;8.10;99.90;;;;;;6485016;22;20224;-80
2024/05/08 00:39:11;;;;;;;12.27;2.83;;;8.10;99.90;;;;;;6529959;22;20267;-80
2024/05/08 00:41:39;;;;;;;3.67;2.70;;;8.20;99.90;;;;;;6529629;22;20224;-80
2024/05/08 00:44:08;;;;;;;4.53;2.80;;;8.30;99.90;;;;;;6529680;22;20320;-80
2024/05/08 00:46:37;;;;;;;3.10;2.33;;;8.30;99.90;;;;;;6484996;22;20232;-80
2024/05/08 00:49:05;;;;;;;3.00;2.57;;;8.40;99.90;;;;;;6484935;22;20262;-79
2024/05/08 00:51:37;;;;;;;2.60;2.40;;;8.40;99.90;;;;;;6484620;22;20263;-79
2024/05/08 00:54:07;;;;;;;2.90;2.40;;;8.40;99.90;;;;;;6487005;22;20232;-79
2024/05/08 00:56:37;;;;;;;4.43;2.60;;;8.50;99.90;;;;;;6531423;22;20333;-79
2024/05/08 00:59:06;;;;;;;2.70;2.50;;;8.60;99.90;;;;;;6486796;22;20267;-79
2024/05/08 01:01:35;;;;;;;4.33;3.03;;;8.90;99.90;;;;;;6531732;21;20228;-80
2024/05/08 01:04:03;;;;;;;4.17;2.80;;;8.70;99.90;;;;;;6486796;22;20271;-80
2024/05/08 01:06:32;;;;;;;5.30;2.80;;;8.70;99.90;;;;;;6486957;22;20259;-80
2024/05/08 01:09:03;;;;;;;4.83;3.10;;;8.60;99.90;;;;;;6486941;22;20224;-79
2024/05/08 01:11:32;;;;;;;2.90;2.60;;;8.60;99.90;;;;;;6486635;22;20262;-79
2024/05/08 01:14:00;;;;;;;7.33;2.70;;;8.50;99.90;;;;;;6531817;22;20216;-79
2024/05/08 01:16:29;;;;;;;3.80;2.60;;;8.50;99.90;;;;;;6486721;22;20232;-79
2024/05/08 01:18:57;;;;;;;2.93;2.40;;;8.50;99.90;;;;;;6486808;22;20228;-79
2024/05/08 01:21:26;;;;;;;6.03;2.57;;;8.50;99.90;;;;;;6486509;22;20228;-79
2024/05/08 01:23:57;;;;;;;5.70;2.90;;;8.40;99.90;;;;;;6486921;22;20232;-79
2024/05/08 01:26:25;;;;;;;2.83;2.53;;;8.40;99.90;;;;;;6531860;22;20250;-79
2024/05/08 01:28:54;;;;;;;3.30;2.67;;;8.40;99.90;;;;;;6486631;22;20263;-80
2024/05/08 01:31:22;;;;;;;6.17;3.07;;;8.50;99.90;;;;;;6531324;22;20216;-79
2024/05/08 01:33:51;;;;;;;3.23;2.80;;;8.50;99.90;;;;;;6531462;22;20250;-79
2024/05/08 01:36:19;;;;;;;2.50;2.30;;;8.70;99.90;;;;;;6486364;22;20231;-79
2024/05/08 01:38:48;;;;;;;2.50;2.30;;;8.70;99.90;;;;;;6531647;22;20216;-80
2024/05/08 01:41:19;;;;;;;3.57;2.60;;;8.70;99.90;;;;;;6486703;22;20232;-79
2024/05/08 01:43:47;;;;;;;2.93;2.50;;;8.60;99.90;;;;;;6531828;22;20216;-80
2024/05/08 01:46:16;;;;;;;2.83;2.60;;;8.50;99.90;;;;;;6531188;22;20216;-80
2024/05/08 01:48:44;;;;;;;3.40;2.80;;;8.60;99.90;;;;;;6530624;22;20227;-80
2024/05/08 01:51:14;;;;;;;2.80;2.50;;;8.50;99.90;;;;;;6531670;22;20251;-80
2024/05/08 01:53:42;;;;;;;3.87;2.60;;;8.30;99.90;;;;;;6486375;22;20228;-80
2024/05/08 01:56:11;;;;;;;4.73;2.50;;;8.30;99.90;;;;;;6486136;22;20244;-80
2024/05/08 01:58:42;;;;;;;4.90;2.40;;;8.30;99.90;;;;;;6531257;22;20220;-79
2024/05/08 02:01:12;;;;;;;3.23;2.57;;;8.30;99.90;;;;;;6498705;21;20281;-80
2024/05/08 02:03:40;;;;;;;2.20;2.00;;;8.40;99.90;;;;;;6581025;21;20354;-80
2024/05/08 02:06:09;;;;;;;3.60;2.67;;;8.50;99.90;;;;;;6583538;21;20255;-79
2024/05/08 02:08:38;;;;;;;4.30;2.50;;;8.50;99.90;;;;;;6583486;21;20215;-80
2024/05/08 02:11:06;;;;;;;3.57;2.53;;;8.60;99.90;;;;;;6581442;21;20273;-80
2024/05/08 02:13:34;;;;;;;2.50;2.30;;;8.70;99.90;;;;;;6583313;21;20215;-80
2024/05/08 02:16:06;;;;;;;2.60;2.40;;;8.60;99.90;;;;;;6580999;21;20277;-80
2024/05/08 02:18:34;;;;;;;3.80;2.60;;;8.60;99.90;;;;;;6581323;21;20261;-80
2024/05/08 02:21:03;;;;;;;2.93;2.33;;;8.50;99.90;;;;;;6581356;21;20226;-80
2024/05/08 02:23:31;;;;;;;3.63;2.30;;;8.70;99.90;;;;;;6580976;21;20231;-80
2024/05/08 02:26:00;;;;;;;2.80;2.50;;;8.50;99.90;;;;;;6583199;21;20215;-80
2024/05/08 02:28:28;;;;;;;3.10;2.80;;;8.60;99.90;;;;;;6582919;21;20223;-80
2024/05/08 02:30:56;;;;;;;4.13;3.40;;;8.80;99.90;;;;;;6580347;21;20230;-80
2024/05/08 02:33:28;;;;;;;6.00;2.80;;;8.60;99.90;;;;;;6583508;21;20215;-80
2024/05/08 02:35:56;;;;;;;2.93;2.53;;;8.70;99.90;;;;;;6580903;21;20227;-80
2024/05/08 02:38:25;;;;;;;4.33;2.80;;;8.80;99.90;;;;;;6581066;21;20231;-80
2024/05/08 02:40:53;;;;;;;2.80;2.50;;;8.70;99.90;;;;;;6581081;21;20270;-80
2024/05/08 02:43:21;;;;;;;2.40;2.20;;;8.70;99.90;;;;;;6582854;21;20219;-79
2024/05/08 02:45:50;;;;;;;2.47;2.00;;;8.60;99.90;;;;;;6582820;21;20215;-79
2024/05/08 02:48:18;;;;;;;2.47;2.10;;;8.70;99.90;;;;;;6582798;21;20311;-80
2024/05/08 02:50:49;;;;;;;3.17;2.00;;;8.70;99.90;;;;;;6580783;21;20257;-80
2024/05/08 02:53:18;;;;;;;2.27;2.07;;;8.80;99.90;;;;;;6583189;21;20215;-80
2024/05/08 02:55:47;;;;;;;3.67;2.07;;;8.90;99.90;;;;;;6580604;21;20243;-80
2024/05/08 02:58:16;;;;;;;3.30;2.33;;;9.00;99.90;;;;;;6582736;21;20215;-79
2024/05/08 03:00:44;;;;;;;2.40;2.20;;;9.00;99.90;;;;;;6581286;21;20219;-80
2024/05/08 03:03:13;;;;;;;2.90;2.13;;;9.00;99.90;;;;;;6529950;22;20270;-79
2024/05/08 03:05:41;;;;;;;2.10;1.90;;;9.10;99.90;;;;;;6530749;22;20216;-80
2024/05/08 03:08:12;;;;;;;2.53;2.10;;;9.00;99.90;;;;;;6485552;22;20228;-80
2024/05/08 03:10:41;;;;;;;2.50;2.20;;;9.10;99.90;;;;;;6485544;22;20231;-80
2024/05/08 03:13:09;;;;;;;2.20;2.00;;;9.10;99.90;;;;;;6485593;22;20228;-79
2024/05/08 03:15:38;;;;;;;5.17;2.10;;;9.00;99.90;;;;;;6485153;22;20228;-79
2024/05/08 03:18:07;;;;;;;3.13;2.27;;;9.10;99.90;;;;;;6530333;22;20267;-80
2024/05/08 03:20:35;;;;;;;3.20;2.20;;;9.10;99.90;;;;;;6530241;22;20215;-80
2024/05/08 03:23:04;;;;;;;3.10;2.00;;;9.20;99.90;;;;;;6485181;22;20258;-80
2024/05/08 03:25:35;;;;;;;2.87;2.23;;;9.20;99.90;;;;;;6485564;22;20232;-79
2024/05/08 03:28:04;;;;;;;4.93;2.20;;;9.20;99.90;;;;;;6530243;22;20220;-80
2024/05/08 03:30:32;;;;;;;2.40;2.20;;;9.20;99.90;;;;;;6530686;22;20216;-80
2024/05/08 03:33:01;;;;;;;3.10;2.20;;;9.10;99.90;;;;;;6530027;22;20217;-80
2024/05/08 03:35:29;;;;;;;4.33;2.37;;;9.20;99.90;;;;;;6530111;22;20216;-80
2024/05/08 03:37:58;;;;;;;3.17;2.10;;;9.20;99.90;;;;;;6485382;22;20263;-80
2024/05/08 03:40:27;;;;;;;3.27;2.10;;;9.10;99.90;;;;;;6530047;22;20266;-80
2024/05/08 03:42:58;;;;;;;2.63;1.97;;;9.00;99.90;;;;;;6485340;22;20232;-80
2024/05/08 03:45:26;;;;;;;3.17;1.97;;;9.20;99.90;;;;;;6530780;22;20216;-80
2024/05/08 03:47:55;;;;;;;5.17;2.07;;;9.20;99.90;;;;;;6484856;22;20274;-80
2024/05/08 03:50:23;;;;;;;3.90;2.10;;;9.20;99.90;;;;;;6485320;22;20228;-80
2024/05/08 03:52:51;;;;;;;2.03;1.83;;;9.40;99.90;;;;;;6529928;22;20254;-80
2024/05/08 03:55:20;;;;;;;1.87;1.50;;;9.30;99.90;;;;;;6485047;22;20262;-80
2024/05/08 03:57:48;;;;;;;4.17;2.00;;;9.20;99.90;;;;;;6485226;22;20232;-80
2024/05/08 04:00:20;;;;;;;2.73;2.03;;;9.20;99.90;;;;;;6530286;22;20215;-80
2024/05/08 04:02:48;;;;;;;2.60;1.63;;;9.40;99.90;;;;;;6567282;21;20254;-80
2024/05/08 04:05:17;;;;;;;2.03;1.77;;;9.30;99.90;;;;;;6580223;21;20277;-80
2024/05/08 04:07:45;;;;;;;5.67;2.10;;;9.40;99.90;;;;;;6579899;21;20226;-80
2024/05/08 04:10:14;;;;;;;1.77;1.57;;;9.40;99.90;;;;;;6580018;21;20253;-80
2024/05/08 04:12:44;;;;;;;2.00;1.80;;;9.30;99.90;;;;;;6582183;21;20215;-80
2024/05/08 04:15:13;;;;;;;5.00;2.10;;;9.50;99.90;;;;;;6580041;21;20227;-80
2024/05/08 04:17:44;;;;;;;4.50;1.83;;;9.50;99.90;;;;;;6580018;21;20230;-81
2024/05/08 04:20:12;;;;;;;2.70;2.07;;;9.40;99.90;;;;;;6581708;21;20261;-80
2024/05/08 04:22:41;;;;;;;3.70;1.77;;;9.50;99.90;;;;;;6580092;21;20230;-80
2024/05/08 04:25:11;;;;;;;2.10;1.77;;;9.40;99.90;;;;;;6582483;21;20245;-80
2024/05/08 04:27:42;;;;;;;2.97;1.83;;;9.60;99.90;;;;;;6580190;21;20231;-80
2024/05/08 04:30:13;;;;;;;4.87;2.07;;;9.60;99.90;;;;;;6580022;21;20270;-81
2024/05/08 04:32:44;;;;;;;1.97;1.80;;;9.60;99.90;;;;;;6580168;21;20257;-81
2024/05/08 04:35:13;;;;;;;2.50;1.70;;;9.50;99.90;;;;;;6579839;21;20629;-81
2024/05/08 04:37:41;;;;;;;4.63;1.77;;;9.70;99.90;;;;;;6581937;21;20215;-81
2024/05/08 04:40:12;;;;;;;2.40;2.10;;;9.70;99.90;;;;;;6579766;21;20231;-81
2024/05/08 04:42:42;;;;;;;8.57;2.17;;;9.60;99.90;;;;;;6579946;21;20230;-81
2024/05/08 04:45:11;;;;;;;3.17;1.90;;;9.70;99.90;;;;;;6580073;21;20238;-81
2024/05/08 04:47:39;;;;;;;2.30;1.80;;;9.70;99.90;;;;;;6580049;21;20230;-81
2024/05/08 04:50:10;;;;;;;4.10;1.70;;;9.80;99.90;;;;;;6581781;21;20350;-81
2024/05/08 04:52:39;;;;;;;2.73;2.20;;;9.80;99.90;;;;;;6579929;21;20231;-81
2024/05/08 04:55:08;;;;;;;2.03;1.70;;;9.90;99.90;;;;;;6581823;21;20249;-81
2024/05/08 04:57:37;;;;;;;2.07;1.70;;;10.10;99.90;;;;;;6581587;21;20289;-80
2024/05/08 05:00:06;;;;;;;3.20;1.83;;;10.20;99.90;;;;;;6579627;21;20272;-81
2024/05/08 05:02:35;;;;;;;2.20;1.80;;;10.10;99.90;;;;;;6540957;21;20228;-81
2024/05/08 05:05:04;;;;;;;4.33;1.90;;;10.00;99.90;;;;;;6484293;22;20258;-80
2024/05/08 05:07:36;;;;;;;2.10;1.90;;;10.10;99.90;;;;;;6484716;22;20287;-80
2024/05/08 05:10:05;;;;;;;3.03;1.80;;;10.20;99.90;;;;;;6484406;22;20321;-80
2024/05/08 05:12:33;;;;;;;4.50;1.90;;;10.10;99.90;;;;;;6484561;22;20231;-81
2024/05/08 05:15:02;;;;;;;2.13;1.90;;;10.10;99.90;;;;;;6484212;22;20275;-80
2024/05/08 05:17:30;;;;;;;5.10;1.80;;;10.00;99.90;;;;;;6484400;22;20266;-80
2024/05/08 05:19:59;;;;;;;1.63;1.53;;;10.10;99.90;;;;;;6529744;22;20228;-80
2024/05/08 05:22:27;;;;;;;2.10;1.90;;;10.10;99.90;;;;;;6484299;22;20232;-80
2024/05/08 05:24:59;;;;;;;2.43;1.97;;;10.20;99.90;;;;;;6529639;22;20216;-81
2024/05/08 05:27:28;;;;;;;1.90;1.70;;;10.20;99.90;;;;;;6529648;22;20216;-81
2024/05/08 05:29:57;;;;;;;5.50;1.60;;;10.30;99.90;;;;;;6484432;22;20320;-80
2024/05/08 05:35:11;;;;;;;6.43;3.20;;;10.40;99.90;;;;;;6529610;22;20300;-81
2024/05/08 05:37:39;;;;;;;3.57;2.50;;;10.50;99.90;;;;;;6529221;22;20216;-81
2024/05/08 05:40:12;;;;;;;2.57;2.10;;;10.40;99.90;;;;;;6485894;22;20266;-81
2024/05/08 05:48:11;;;;;;;1.97;1.70;;;10.50;99.90;;;;;;6487360;22;20235;-80
2024/05/08 05:50:40;;;;;;;4.43;1.97;;;10.50;99.90;;;;;;6531256;22;20216;-80
2024/05/08 05:53:10;;;;;;;3.80;2.77;;;10.70;99.90;;;;;;6531057;22;20216;-80
2024/05/08 05:55:41;;;;;;;2.90;2.30;;;10.70;99.90;;;;;;6531093;22;20244;-80
2024/05/08 05:58:12;;;;;;;2.67;2.10;;;10.80;99.90;;;;;;6531488;22;20216;-80
2024/05/08 06:00:41;;;;;;;3.53;2.00;;;10.90;99.90;;;;;;6486162;22;20234;-80
2024/05/08 06:03:09;;;;;;;2.87;1.93;;;10.90;99.90;;;;;;6486061;22;20258;-80
2024/05/08 06:05:38;;;;;;;2.43;1.63;;;10.90;99.90;;;;;;6486143;22;20232;-80
2024/05/08 06:08:09;;;;;;;3.77;1.83;;;10.80;99.90;;;;;;6531651;22;20216;-80
2024/05/08 06:10:41;;;;;;;3.27;2.00;;;10.90;99.90;;;;;;6531376;22;20266;-80
2024/05/08 06:13:10;;;;;;;2.60;1.80;;;11.00;99.90;;;;;;6531193;22;20212;-80
2024/05/08 06:15:38;;;;;;;2.10;1.90;;;11.00;99.90;;;;;;6485930;22;20227;-80
2024/05/08 06:18:07;;;;;;;4.23;1.87;;;11.00;99.90;;;;;;6531257;22;20219;-80
2024/05/08 06:20:35;;;;;;;1.80;1.53;;;11.20;99.90;;;;;;6530983;22;20250;-80
2024/05/08 06:23:04;;;;;;;3.17;1.63;;;11.40;99.90;;;;;;6486094;22;20263;-81
2024/05/08 06:25:36;;;;;;;2.97;1.60;;;11.60;99.90;;;;;;6531261;22;20216;-80
2024/05/08 06:28:07;;;;;;;2.63;1.80;;;11.60;99.90;;;;;;6530812;22;20262;-80
2024/05/08 06:30:36;;;;;;;1.73;1.63;;;11.70;99.90;;;;;;6485878;22;20262;-81
2024/05/08 06:33:06;;;;;;;2.07;1.80;;;11.90;99.90;;;;;;6530723;22;20247;-81
2024/05/08 06:35:35;;;;;;;3.03;1.73;;;11.80;99.90;;;;;;6531043;22;20228;-81
2024/05/08 06:38:04;;;;;;;1.93;1.70;;;11.70;99.90;;;;;;6530737;22;20216;-81
2024/05/08 06:40:32;;;;;;;5.00;1.87;;;11.50;99.90;;;;;;6530879;22;20220;-81
2024/05/08 06:43:01;;;;;;;2.13;1.63;;;11.70;99.90;;;;;;6530561;22;20224;-81
2024/05/08 06:45:32;;;;;;;2.77;1.80;;;11.70;99.90;;;;;;6530608;22;20220;-80
2024/05/08 06:48:01;;;;;;;1.57;1.47;;;11.90;99.90;;;;;;6485857;22;20317;-81
2024/05/08 06:50:29;;;;;;;2.07;1.63;;;12.50;99.90;;;;;;6529958;22;20220;-81
2024/05/08 06:52:57;;;;;;;1.60;1.47;;;12.80;99.90;;;;;;6485614;22;20283;-81
2024/05/08 06:55:27;;;;;;;3.40;1.80;;;12.70;99.90;;;;;;6530952;22;20258;-81
2024/05/08 06:57:55;;;;;;;5.30;1.97;;;12.50;99.90;;;;;;6484779;22;20262;-81
2024/05/08 07:00:24;;;;;;;1.93;1.70;;;12.30;99.90;;;;;;6530712;22;20329;-81
2024/05/08 07:02:56;;;;;;;2.17;1.70;;;12.80;99.90;;;;;;6569570;21;20281;-81
2024/05/08 07:05:24;;;;;;;1.87;1.50;;;13.30;99.90;;;;;;6582995;21;20215;-80
2024/05/08 07:07:55;;;;;;;4.47;1.60;;;13.10;99.90;;;;;;6580579;21;20227;-81
2024/05/08 07:10:25;;;;;;;2.53;1.73;;;12.90;99.90;;;;;;6582957;21;20265;-80
2024/05/08 07:12:53;;;;;;;3.87;1.70;;;13.10;99.90;;;;;;6582730;21;20265;-80
2024/05/08 07:15:22;;;;;;;3.17;1.90;;;13.20;99.90;;;;;;6582605;21;20317;-80
2024/05/08 07:17:50;;;;;;;2.63;1.57;;;13.70;99.90;;;;;;6582460;21;20223;-80
2024/05/08 07:20:21;;;;;;;1.50;1.40;;;13.70;99.90;;;;;;6580700;21;20270;-81
2024/05/08 07:22:50;;;;;;;1.93;1.73;;;13.70;99.90;;;;;;6580841;21;20226;-80
2024/05/08 07:25:19;;;;;;;1.67;1.53;;;13.70;99.90;;;;;;6582289;21;20216;-81
2024/05/08 07:27:48;;;;;;;2.03;1.50;;;14.00;99.90;;;;;;6580714;21;20230;-81
2024/05/08 07:30:16;;;;;;;3.17;1.57;;;14.00;99.90;;;;;;6582509;21;20266;-80
2024/05/08 07:32:45;;;;;;;6.83;1.50;;;14.20;99.90;;;;;;6582989;21;20231;-80
2024/05/08 07:35:13;;;;;;;4.17;1.30;;;14.20;99.90;;;;;;6583070;21;20249;-80
2024/05/08 07:37:45;;;;;;;1.80;1.40;;;14.40;99.90;;;;;;6580992;21;20230;-81
2024/05/08 07:40:13;;;;;;;5.70;1.43;;;14.30;99.90;;;;;;6581117;21;20227;-80
2024/05/08 07:42:42;;;;;;;1.83;1.53;;;14.50;99.90;;;;;;6580706;21;20227;-81
2024/05/08 07:45:10;;;;;;;1.40;1.30;;;14.50;99.90;;;;;;6581175;21;20227;-80
2024/05/08 07:47:39;;;;;;;3.33;1.67;;;14.80;99.90;;;;;;6583144;21;20253;-80
2024/05/08 07:50:08;;;;;;;3.00;1.50;;;14.90;99.90;;;;;;6583038;21;20215;-81
2024/05/08 07:52:36;;;;;;;3.00;1.60;;;15.60;99.90;;;;;;6581006;21;20261;-80
2024/05/08 07:55:08;;;;;;;2.23;1.70;;;15.30;99.90;;;;;;6583139;21;20265;-81
2024/05/08 07:57:37;;;;;;;3.33;1.70;;;15.50;99.90;;;;;;6580317;21;20226;-81
2024/05/08 08:00:06;;;;;;;2.20;1.43;;;16.00;99.90;;;;;;6582551;21;20214;-81
2024/05/08 08:02:35;;;;;;;2.40;1.53;;;15.70;99.90;;;;;;6541588;21;20228;-81
2024/05/08 08:05:03;;;;;;;1.73;1.30;;;15.80;99.90;;;;;;6530072;22;20216;-81
2024/05/08 08:07:29;;;;;;;1.60;1.50;;;15.90;99.90;;;;;;6485253;22;20263;-82
2024/05/08 08:09:58;;;;;;;3.23;1.20;;;15.80;99.90;;;;;;6530044;22;20220;-81
2024/05/08 08:12:30;;;;;;;2.57;1.50;;;16.30;99.90;;;;;;6485445;22;20324;-81
2024/05/08 08:14:59;;;;;;;2.47;1.40;;;16.00;99.90;;;;;;6532244;22;20242;-79
2024/05/08 08:17:27;;;;;;;4.60;1.73;;;16.50;99.90;;;;;;6532119;22;20272;-81
2024/05/08 08:19:56;;;;;;;2.03;1.30;;;16.80;99.90;;;;;;6486557;22;20227;-81
2024/05/08 08:22:24;;;;;;;4.13;1.37;;;17.10;99.90;;;;;;6486159;22;20228;-80
2024/05/08 08:24:53;;;;;;;7.93;1.30;;;17.00;99.90;;;;;;6485706;22;20232;-80
2024/05/08 08:27:21;;;;;;;3.73;1.30;;;16.60;99.90;;;;;;6531207;22;20267;-80
2024/05/08 08:29:52;;;;;;;1.47;1.00;;;17.70;99.90;;;;;;6486603;22;20232;-81
2024/05/08 08:32:21;;;;;;;1.57;1.27;;;17.50;99.90;;;;;;6532024;22;20332;-81
2024/05/08 08:34:49;;;;;;;2.73;1.17;;;17.20;99.90;;;;;;6530729;22;20216;-80
2024/05/08 08:37:18;;;;;;;2.23;1.10;;;16.90;99.90;;;;;;6485787;22;20224;-80
2024/05/08 08:39:47;;;;;;;1.30;1.07;;;17.40;99.90;;;;;;6531426;22;20271;-81
2024/05/08 08:42:23;;;;;;;1.00;0.90;;;17.20;99.90;;;;;;6532002;22;20216;-81
2024/05/08 08:44:57;;;;;;;2.43;1.13;;;17.30;99.90;;;;;;6487509;22;20228;-81
2024/05/08 08:47:28;;;;;;;2.57;1.30;;;17.60;99.90;;;;;;6532721;22;20266;-80
2024/05/08 08:49:58;;;;;;;1.60;0.97;;;18.00;99.90;;;;;;6486766;22;20227;-81
2024/05/08 08:52:30;;;;;;;2.00;1.10;;;18.00;99.90;;;;;;6533460;22;20279;-81
2024/05/08 08:54:58;;;;;;;2.00;1.10;;;18.10;99.90;;;;;;6533366;22;20215;-80
2024/05/08 08:57:30;;;;;;;1.67;1.30;;;17.80;99.90;;;;;;6488680;22;20282;-80
2024/05/08 09:00:05;;;;;;;1.43;1.00;;;17.50;99.90;;;;;;6535816;22;20310;-81
2024/05/08 09:02:35;;;;;;;1.90;1.30;;;18.50;99.90;;;;;;6535808;21;20239;-81
2024/05/08 09:05:05;;;;;;;2.63;1.40;;;19.00;99.90;;;;;;6489768;22;20275;-80
2024/05/08 09:07:34;;;;;;;2.07;1.23;;;19.20;99.90;;;;;;6489066;22;20228;-81
2024/05/08 09:10:13;;;;;;;3.73;1.07;;;18.90;99.90;;;;;;6532175;22;20258;-81
2024/05/08 09:12:41;;;;;;;5.00;1.17;;;18.60;99.90;;;;;;6484973;22;20237;-81
2024/05/08 09:15:13;;;;;;;3.50;1.30;;;18.20;99.90;;;;;;6531690;22;20220;-81
2024/05/08 09:17:42;;;;;;;1.70;1.17;;;18.40;99.90;;;;;;6531829;22;20228;-81
2024/05/08 09:20:13;;;;;;;2.53;1.20;;;18.60;99.90;;;;;;6487006;22;20246;-81
2024/05/08 09:22:42;;;;;;;1.33;0.90;;;19.00;99.90;;;;;;6486777;22;20232;-82
2024/05/08 09:25:11;;;;;;;2.30;1.00;;;19.80;99.90;;;;;;6486675;22;20228;-82
2024/05/08 09:27:40;;;;;;;6.77;1.40;;;19.80;99.90;;;;;;6531762;22;20262;-82
2024/05/08 09:30:09;;;;;;;1.93;1.10;;;20.00;99.90;;;;;;6486826;22;20275;-82
2024/05/08 09:32:41;;;;;;;2.40;1.10;;;19.90;99.90;;;;;;6486605;22;20260;-82
2024/05/08 09:35:10;;;;;;;2.37;1.30;;;19.90;99.90;;;;;;6531493;22;20219;-82
2024/05/08 09:37:40;;;;;;;1.10;1.00;;;19.70;99.90;;;;;;6486485;22;20330;-82
2024/05/08 09:40:11;;;;;;;2.97;1.03;;;19.60;99.90;;;;;;6531562;22;20317;-82
2024/05/08 09:42:41;;;;;;;1.90;1.23;;;20.00;99.90;;;;;;6531649;22;20224;-82
2024/05/08 09:45:09;;;;;;;1.30;1.03;;;19.90;99.90;;;;;;6531159;22;20220;-82
2024/05/08 09:47:47;;;;;;;1.47;1.00;;;19.80;99.90;;;;;;6486575;22;20270;-82
2024/05/08 09:50:19;;;;;;;2.30;1.37;;;19.70;99.90;;;;;;6486474;22;20227;-82
2024/05/08 09:52:51;;;;;;;2.50;1.20;;;19.90;99.90;;;;;;6486683;22;20231;-82
2024/05/08 09:55:21;;;;;;;0.93;0.80;;;19.60;99.90;;;;;;6486408;22;20228;-82
2024/05/08 09:57:51;;;;;;;2.80;1.00;;;20.00;99.90;;;;;;6486530;22;20254;-82
2024/05/08 10:00:20;;;;;;;1.20;1.07;;;20.60;99.90;;;;;;6486639;22;20228;-82
2024/05/08 10:02:52;;;;;;;1.37;1.00;;;20.10;99.90;;;;;;6566846;21;20239;-81
2024/05/08 10:05:22;;;;;;;1.17;1.07;;;21.00;99.90;;;;;;6581546;21;20342;-82
2024/05/08 10:08:00;;;;;;;0.97;0.90;;;22.40;99.90;;;;;;6581513;21;20253;-82
2024/05/08 10:10:33;;;;;;;1.50;1.00;;;22.60;99.90;;;;;;6581384;21;20316;-82
2024/05/08 10:13:14;;;;;;;1.60;0.90;;;21.50;99.90;;;;;;6583475;21;20219;-80
2024/05/08 10:15:53;;;;;;;1.53;1.00;;;22.50;99.90;;;;;;6581183;21;20333;-81
2024/05/08 10:18:34;;;;;;;1.73;0.77;;;23.10;99.90;;;;;;6583396;21;20215;-80
2024/05/08 10:21:07;;;;;;;4.63;0.93;;;21.80;99.90;;;;;;6583285;21;20214;-80
2024/05/08 10:23:47;;;;;;;2.20;0.97;;;21.50;99.90;;;;;;6583475;21;20254;-81
2024/05/08 10:26:16;;;;;;;1.90;0.90;;;22.90;99.90;;;;;;6580894;21;20273;-80
2024/05/08 10:28:45;;;;;;;1.63;0.90;;;21.60;99.90;;;;;;6583336;21;20223;-80
2024/05/08 10:31:17;;;;;;;1.10;0.80;;;21.30;99.90;;;;;;6583311;21;20215;-80
2024/05/08 10:33:52;;;;;;;1.77;0.90;;;21.80;99.90;;;;;;6581220;21;20227;-80
2024/05/08 10:36:22;;;;;;;2.53;0.80;;;23.00;99.90;;;;;;6583289;21;20222;-80
2024/05/08 10:38:50;;;;;;;1.57;0.90;;;24.00;99.90;;;;;;6580892;21;20234;-80
2024/05/08 10:41:19;;;;;;;4.73;0.97;;;24.20;99.90;;;;;;6580924;21;20262;-80
2024/05/08 10:43:47;;;;;;;1.60;0.80;;;24.80;98.90;;;;;;6583251;21;20219;-80
2024/05/08 10:46:16;;;;;;;2.10;0.60;;;24.50;97.90;;;;;;6582764;21;20218;-80
2024/05/08 10:48:47;;;;;;;1.30;0.50;;;25.40;95.90;;;;;;6582735;21;20270;-80
2024/05/08 10:51:16;;;;;;;0.70;0.60;;;24.30;93.70;;;;;;6580614;21;20227;-80
2024/05/08 10:53:44;;;;;;;1.33;0.60;;;22.20;94.40;;;;;;6580780;21;20227;-80
2024/05/08 10:56:13;;;;;;;1.70;0.90;;;23.10;96.70;;;;;;6580995;21;20238;-80
2024/05/08 10:58:39;;;;;;;1.93;0.87;;;22.60;97.40;;;;;;6580718;21;20249;-80
2024/05/08 11:01:07;;;;;;;1.53;0.60;;;23.30;93.60;;;;;;6573811;21;20287;-80
2024/05/08 11:03:49;;;;;;;2.17;0.60;;;23.10;92.70;;;;;;6485437;22;20270;-80
2024/05/08 11:06:30;;;;;;;0.50;0.50;;;23.40;93.00;;;;;;6485493;22;20344;-80
2024/05/08 11:08:59;;;;;;;0.60;0.50;;;24.70;90.60;;;;;;6530908;22;20251;-80
2024/05/08 11:11:32;;;;;;;0.63;0.60;;;25.10;85.20;;;;;;6485415;22;20228;-80
2024/05/08 11:14:00;;;;;;;1.00;0.57;;;24.60;86.20;;;;;;6485473;22;20228;-80
2024/05/08 11:16:29;;;;;;;1.33;0.53;;;24.30;85.60;;;;;;6485128;22;20280;-80
2024/05/08 11:19:00;;;;;;;1.30;0.60;;;24.80;80.30;;;;;;6485369;22;20228;-80
2024/05/08 11:21:29;;;;;;;1.87;0.70;;;24.80;78.70;;;;;;6485603;22;20264;-80
2024/05/08 11:23:57;;;;;;;0.57;0.50;;;24.80;75.00;;;;;;6485500;22;20232;-80
2024/05/08 11:26:26;;;;;;;1.40;0.60;;;24.90;78.60;;;;;;6485361;22;20247;-80
2024/05/08 11:28:54;;;;;;;0.70;0.40;;;24.40;76.80;;;;;;6485101;22;20270;-80
2024/05/08 11:31:23;;;;;;;2.20;0.50;;;24.40;77.30;;;;;;6485333;22;20232;-80
2024/05/08 11:33:52;;;;;;;1.73;0.50;;;24.70;74.20;;;;;;6485306;22;20316;-80
2024/05/08 11:36:23;;;;;;;2.70;0.60;;;25.00;73.90;;;;;;6484870;22;20258;-80
2024/05/08 11:38:52;;;;;;;1.33;0.57;;;25.50;76.10;;;;;;6530342;22;20316;-80
2024/05/08 11:41:21;;;;;;;3.27;0.87;;;24.20;88.20;;;;;;6529191;22;20240;-80
2024/05/08 11:43:53;;;;;;;0.60;0.50;;;23.10;94.10;;;;;;6484932;22;20227;-80
2024/05/08 11:46:21;;;;;;;2.67;1.00;;;23.00;91.90;;;;;;6529979;22;20262;-80
2024/05/08 11:48:50;;;;;;;1.83;1.00;;;23.00;91.20;;;;;;6485432;22;20228;-80
2024/05/08 11:51:19;;;;;;;0.87;0.70;;;23.00;88.40;;;;;;6530315;22;20267;-80
2024/05/08 11:53:50;;;;;;;2.50;0.80;;;23.40;87.30;;;;;;6530322;22;20267;-80
2024/05/08 11:56:19;;;;;;;3.17;1.23;;;23.30;81.30;;;;;;6484706;22;20245;-80
2024/05/08 11:58:47;;;;;;;1.40;0.77;;;23.90;88.90;;;;;;6530205;22;20216;-80
2024/05/08 12:01:16;;;;;;;1.50;0.70;;;24.30;85.70;;;;;;6529811;21;20228;-80
2024/05/08 12:03:44;;;;;;;1.27;0.67;;;23.60;86.40;;;;;;6530367;22;20224;-80
2024/05/08 12:06:13;;;;;;;3.20;0.90;;;24.20;87.40;;;;;;6529824;22;20212;-80
2024/05/08 12:08:42;;;;;;;1.03;0.60;;;23.90;91.20;;;;;;6527595;22;20262;-80
2024/05/08 12:11:13;;;;;;;3.47;0.97;;;23.70;89.20;;;;;;6529618;22;20216;-80
2024/05/08 12:13:41;;;;;;;1.87;0.80;;;24.30;82.60;;;;;;6530561;22;20216;-80
2024/05/08 12:16:10;;;;;;;1.13;0.50;;;24.60;80.20;;;;;;6529888;22;20283;-80
2024/05/08 12:18:38;;;;;;;0.63;0.57;;;24.80;79.60;;;;;;6485029;22;20276;-80
2024/05/08 12:21:09;;;;;;;0.87;0.70;;;25.20;79.20;;;;;;6529523;22;20216;-80
2024/05/08 12:23:38;;;;;;;1.63;0.70;;;24.50;74.00;;;;;;6485093;22;20232;-80
2024/05/08 12:26:06;;;;;;;0.70;0.57;;;25.30;75.70;;;;;;6529642;22;20270;-80
2024/05/08 12:28:38;;;;;;;0.93;0.70;;;24.90;76.70;;;;;;6484699;22;20240;-80
2024/05/08 12:31:06;;;;;;;1.87;0.67;;;24.50;72.20;;;;;;6484942;22;20259;-80
2024/05/08 12:33:35;;;;;;;2.80;1.20;;;24.60;76.10;;;;;;6484535;22;20228;-80
2024/05/08 12:36:03;;;;;;;1.53;0.80;;;23.90;84.20;;;;;;6484720;22;20232;-80
2024/05/08 12:38:32;;;;;;;1.07;0.67;;;24.10;75.60;;;;;;6484353;22;20314;-80
2024/05/08 12:41:01;;;;;;;1.93;0.70;;;23.30;80.30;;;;;;6484979;22;20231;-80
2024/05/08 12:43:29;;;;;;;1.70;0.50;;;23.20;81.70;;;;;;6529878;22;20220;-80
2024/05/08 12:46:00;;;;;;;0.50;0.50;;;23.90;84.20;;;;;;6529617;22;20259;-80
2024/05/08 12:48:29;;;;;;;0.83;0.60;;;23.60;82.90;;;;;;6486034;22;20319;-80
2024/05/08 12:50:57;;;;;;;1.63;0.70;;;23.70;82.40;;;;;;6532177;22;20254;-80
2024/05/08 12:53:26;;;;;;;0.70;0.40;;;23.00;76.60;;;;;;6531857;22;20212;-80
2024/05/08 12:55:54;;;;;;;1.20;0.70;;;23.40;81.10;;;;;;6486598;22;20287;-80
2024/05/08 12:58:23;;;;;;;1.40;0.70;;;23.30;77.30;;;;;;6531701;22;20216;-80
2024/05/08 13:00:53;;;;;;;1.83;0.63;;;23.80;76.40;;;;;;6531863;21;20262;-80
2024/05/08 13:03:24;;;;;;;3.30;0.77;;;23.40;86.90;;;;;;6531670;22;20216;-80
2024/05/08 13:05:53;;;;;;;1.17;0.63;;;22.70;89.80;;;;;;6486674;22;20231;-80
2024/05/08 13:08:21;;;;;;;0.67;0.50;;;22.30;83.10;;;;;;6486841;22;20275;-80
2024/05/08 13:10:50;;;;;;;1.17;0.70;;;23.00;84.70;;;;;;6531912;22;20219;-80